createdAt,value
2022-08-18T00:04:48.600Z,34.87
2022-08-18T00:09:54.479Z,35.04
2022-08-18T00:14:46.931Z,35.07
2022-08-18T00:19:48.359Z,35.31
2022-08-18T00:24:47.860Z,35.52
2022-08-18T00:29:46.690Z,35.49
2022-08-18T00:34:46.633Z,35.76
2022-08-18T00:39:48.092Z,35.70
2022-08-18T00:44:46.477Z,35.79
2022-08-18T00:49:46.427Z,35.82
2022-08-18T00:54:46.433Z,35.88
2022-08-18T00:59:46.316Z,35.88
2022-08-18T01:04:46.249Z,36.03
2022-08-18T01:09:46.184Z,36.15
2022-08-18T01:14:46.077Z,36.28
2022-08-18T01:19:46.034Z,36.37
2022-08-18T01:24:46.015Z,36.50
2022-08-18T01:29:45.896Z,36.62
2022-08-18T01:34:45.807Z,36.62
2022-08-18T01:41:06.299Z,36.69
2022-08-18T01:44:46.691Z,36.75
2022-08-18T01:49:45.678Z,36.82
2022-08-18T01:54:45.555Z,36.95
2022-08-18T01:59:45.488Z,36.82
2022-08-18T02:04:45.416Z,37.08
2022-08-18T02:09:45.411Z,37.08
2022-08-18T02:14:45.309Z,36.98
2022-08-18T02:19:45.235Z,37.17
2022-08-18T02:24:45.156Z,37.08
2022-08-18T02:29:45.141Z,37.11
2022-08-18T02:34:45.031Z,37.11
2022-08-18T02:39:45.009Z,37.34
2022-08-18T02:44:44.899Z,37.21
2022-08-18T02:49:44.846Z,37.54
2022-08-18T02:54:44.756Z,37.71
2022-08-18T02:59:46.887Z,37.64
2022-08-18T03:04:44.722Z,37.91
2022-08-18T03:09:44.590Z,37.77
2022-08-18T03:14:44.498Z,37.77
2022-08-18T03:19:44.439Z,37.81
2022-08-18T03:24:44.383Z,38.01
2022-08-18T03:29:44.312Z,38.15
2022-08-18T03:34:44.247Z,38.08
2022-08-18T03:39:44.276Z,38.49
2022-08-18T03:44:44.094Z,38.25
2022-08-18T03:49:44.079Z,38.32
2022-08-18T03:54:43.974Z,38.32
2022-08-18T03:59:43.943Z,38.32
2022-08-18T04:04:43.846Z,38.53
2022-08-18T04:09:43.781Z,38.42
2022-08-18T04:14:43.718Z,38.32
2022-08-18T04:19:58.257Z,38.22
2022-08-18T04:24:50.812Z,38.22
2022-08-18T04:29:50.609Z,38.11
2022-08-18T04:34:50.543Z,38.15
2022-08-18T04:39:50.550Z,38.11
2022-08-18T04:44:50.451Z,38.29
2022-08-18T04:49:50.464Z,38.18
2022-08-18T04:54:50.307Z,38.01
2022-08-18T04:59:50.195Z,37.84
2022-08-18T05:04:50.185Z,37.84
2022-08-18T05:09:50.078Z,37.94
2022-08-18T05:14:50.009Z,38.18
2022-08-18T05:19:49.962Z,37.87
2022-08-18T05:24:49.898Z,37.94
2022-08-18T05:29:51.542Z,38.08
2022-08-18T05:34:49.742Z,38.08
2022-08-18T05:39:50.425Z,38.01
2022-08-18T05:44:49.637Z,37.87
2022-08-18T05:49:49.522Z,37.77
2022-08-18T05:54:49.506Z,37.60
2022-08-18T05:59:49.430Z,37.64
2022-08-18T06:04:49.373Z,37.47
2022-08-18T06:09:49.258Z,37.37
2022-08-18T06:14:49.190Z,37.14
2022-08-18T06:19:49.136Z,37.24
2022-08-18T06:24:49.068Z,37.14
2022-08-18T06:29:49.371Z,37.04
2022-08-18T06:34:48.972Z,36.98
2022-08-18T06:39:48.933Z,36.88
2022-08-18T06:44:48.798Z,36.78
2022-08-18T06:49:48.791Z,36.62
2022-08-18T06:54:51.465Z,36.44
2022-08-18T06:59:48.602Z,36.15
2022-08-18T07:04:48.563Z,36.31
2022-08-18T07:09:48.528Z,35.97
2022-08-18T07:14:48.399Z,35.49
2022-08-18T07:19:48.348Z,35.13
2022-08-18T07:24:48.270Z,35.04
2022-08-18T07:29:48.261Z,34.93
2022-08-18T07:34:48.128Z,34.78
2022-08-18T07:39:49.161Z,34.61
2022-08-18T07:44:48.018Z,34.56
2022-08-18T07:50:16.509Z,34.53
2022-08-18T07:54:50.357Z,34.25
2022-08-18T07:59:47.818Z,34.08
2022-08-18T08:04:47.780Z,34.06
2022-08-18T08:09:51.799Z,33.87
2022-08-18T08:14:47.633Z,33.54
2022-08-18T08:20:02.861Z,33.46
2022-08-18T08:24:48.489Z,33.12
2022-08-18T08:29:47.476Z,32.94
2022-08-18T08:34:47.373Z,32.81
2022-08-18T08:39:47.420Z,32.63
2022-08-18T08:44:58.912Z,32.51
2022-08-18T08:49:54.771Z,32.11
2022-08-18T08:54:48.075Z,31.82
2022-08-18T08:59:47.053Z,31.54
2022-08-18T09:04:55.743Z,31.00
2022-08-18T09:09:47.948Z,30.76
2022-08-18T09:14:46.838Z,30.38
2022-08-18T09:19:47.119Z,30.36
2022-08-18T09:24:46.696Z,30.23
2022-08-18T09:29:46.642Z,29.89
2022-08-18T09:34:46.704Z,29.66
2022-08-18T09:39:51.677Z,29.10
2022-08-18T09:44:47.429Z,28.55
2022-08-18T09:49:47.843Z,28.36
2022-08-18T09:54:47.308Z,27.66
2022-08-18T09:59:46.238Z,27.19
2022-08-18T10:04:46.937Z,26.68
2022-08-18T10:09:46.112Z,26.31
2022-08-18T10:14:46.060Z,26.05
2022-08-18T10:19:46.016Z,25.78
2022-08-18T10:24:45.929Z,25.42
2022-08-18T10:29:45.869Z,25.35
2022-08-18T10:34:51.792Z,25.52
2022-08-18T10:39:46.781Z,25.50
2022-08-18T10:44:45.659Z,25.17
2022-08-18T10:49:46.928Z,25.09
2022-08-18T10:54:51.063Z,25.06
2022-08-18T10:59:50.518Z,25.05
2022-08-18T11:04:46.379Z,25.02
2022-08-18T11:09:50.816Z,24.65
2022-08-18T11:14:46.261Z,24.10
2022-08-18T11:19:45.200Z,23.36
2022-08-18T11:24:45.111Z,22.98
2022-08-18T11:29:45.064Z,22.66
2022-08-18T11:34:45.723Z,22.25
2022-08-18T11:39:45.977Z,22.02
2022-08-18T11:44:44.849Z,21.77
2022-08-18T11:49:44.794Z,21.50
2022-08-18T11:54:50.799Z,21.59
2022-08-18T11:59:54.672Z,21.79
2022-08-18T12:04:45.597Z,22.13
2022-08-18T12:10:18.039Z,22.66
2022-08-18T12:14:45.482Z,23.03
2022-08-18T12:19:44.417Z,23.13
2022-08-18T12:24:44.394Z,23.13
2022-08-18T12:29:45.122Z,23.26
2022-08-18T12:34:44.207Z,23.18
2022-08-18T12:39:44.322Z,23.15
2022-08-18T12:44:44.100Z,23.20
2022-08-18T12:49:43.992Z,23.15
2022-08-18T12:54:55.507Z,23.08
2022-08-18T12:59:44.964Z,22.98
2022-08-18T13:04:43.856Z,22.90
2022-08-18T13:09:52.541Z,22.75
2022-08-18T13:14:44.838Z,22.56
2022-08-18T13:19:43.676Z,22.54
2022-08-18T13:24:43.554Z,22.37
2022-08-18T13:29:43.533Z,22.23
2022-08-18T13:34:43.437Z,22.11
2022-08-18T13:39:43.912Z,22.00
2022-08-18T13:44:43.341Z,22.13
2022-08-18T13:49:58.984Z,22.18
2022-08-18T13:54:44.216Z,22.25
2022-08-18T13:59:46.790Z,22.49
2022-08-18T14:04:43.050Z,22.56
2022-08-18T14:09:43.024Z,22.70
2022-08-18T14:14:43.022Z,22.58
2022-08-18T14:19:42.840Z,22.51
2022-08-18T14:24:42.776Z,22.51
2022-08-18T14:29:47.280Z,22.42
2022-08-18T14:34:50.647Z,22.32
2022-08-18T14:39:50.195Z,22.37
2022-08-18T14:44:43.555Z,22.39
2022-08-18T14:49:42.983Z,22.58
2022-08-18T14:54:46.378Z,22.73
2022-08-18T14:59:43.303Z,22.88
2022-08-18T15:04:55.915Z,22.98
2022-08-18T15:09:43.229Z,23.08
2022-08-18T15:14:42.099Z,23.23
2022-08-18T15:19:59.661Z,23.39
2022-08-18T15:24:42.984Z,23.66
2022-08-18T15:29:41.910Z,23.74
2022-08-18T15:34:46.447Z,24.01
2022-08-18T15:39:42.870Z,24.21
2022-08-18T15:44:41.807Z,24.35
2022-08-18T15:49:41.653Z,24.67
2022-08-18T15:54:42.367Z,24.74
2022-08-18T15:59:41.541Z,24.87
2022-08-18T16:04:44.991Z,24.81
2022-08-18T16:09:41.368Z,24.84
2022-08-18T16:14:41.348Z,24.93
2022-08-18T16:19:41.344Z,25.06
2022-08-18T16:24:41.220Z,25.14
2022-08-18T16:29:41.210Z,25.42
2022-08-18T16:34:41.096Z,25.41
2022-08-18T16:39:41.055Z,25.66
2022-08-18T16:44:40.935Z,25.89
2022-08-18T16:49:40.982Z,26.12
2022-08-18T16:54:40.803Z,26.15
2022-08-18T16:59:40.744Z,26.26
2022-08-18T17:04:40.757Z,26.38
2022-08-18T17:09:40.621Z,26.59
2022-08-18T17:14:40.646Z,26.80
2022-08-18T17:19:40.475Z,26.92
2022-08-18T17:24:49.527Z,27.24
2022-08-18T17:29:41.372Z,27.44
2022-08-18T17:34:40.285Z,27.30
2022-08-18T17:39:40.292Z,27.51
2022-08-18T17:44:46.368Z,27.66
2022-08-18T17:49:41.290Z,27.80
2022-08-18T17:54:40.102Z,28.00
2022-08-18T17:59:45.746Z,28.21
2022-08-18T18:04:40.906Z,28.40
2022-08-18T18:09:39.829Z,28.69
2022-08-18T18:14:39.863Z,28.81
2022-08-18T18:19:39.751Z,28.86
2022-08-18T18:24:39.687Z,29.16
2022-08-18T18:29:39.594Z,29.35
2022-08-18T18:34:39.664Z,29.35
2022-08-18T18:39:39.526Z,29.76
2022-08-18T18:44:39.371Z,29.74
2022-08-18T18:49:39.330Z,30.14
2022-08-18T18:54:39.245Z,30.18
2022-08-18T18:59:39.214Z,30.47
2022-08-18T19:04:39.118Z,30.47
2022-08-18T19:09:39.051Z,30.85
2022-08-18T19:14:39.028Z,31.19
2022-08-18T19:19:39.449Z,31.21
2022-08-18T19:24:38.992Z,31.58
2022-08-18T19:29:38.790Z,31.70
2022-08-18T19:34:51.085Z,31.94
2022-08-18T19:39:39.707Z,32.28
2022-08-18T19:44:38.591Z,32.36
2022-08-18T19:49:38.538Z,32.48
2022-08-18T19:54:38.444Z,32.41
2022-08-18T19:59:38.426Z,32.66
2022-08-18T20:04:38.338Z,32.84
2022-08-18T20:09:38.277Z,32.74
2022-08-18T20:14:38.405Z,33.15
2022-08-18T20:19:38.134Z,33.28
2022-08-18T20:24:38.462Z,33.20
2022-08-18T20:29:38.000Z,33.41
2022-08-18T20:34:37.940Z,33.51
2022-08-18T20:39:38.042Z,33.46
2022-08-18T20:44:37.803Z,33.89
2022-08-18T20:49:37.748Z,33.84
2022-08-18T20:54:37.755Z,33.84
2022-08-18T20:59:37.615Z,33.89
2022-08-18T21:04:42.486Z,33.92
2022-08-18T21:09:38.771Z,34.22
2022-08-18T21:14:37.384Z,34.03
2022-08-18T21:19:37.347Z,34.17
2022-08-18T21:24:37.278Z,34.19
2022-08-18T21:29:49.235Z,34.31
2022-08-18T21:34:41.728Z,34.56
2022-08-18T21:39:38.363Z,34.59
2022-08-18T21:44:37.052Z,34.70
2022-08-18T21:49:36.982Z,34.84
2022-08-18T21:54:37.423Z,34.76
2022-08-18T21:59:36.921Z,35.16
2022-08-18T22:04:36.763Z,34.99
2022-08-18T22:09:36.671Z,35.16
2022-08-18T22:14:55.242Z,35.49
2022-08-18T22:19:37.534Z,35.22
2022-08-18T22:24:36.446Z,35.40
2022-08-18T22:29:36.430Z,35.49
2022-08-18T22:34:37.359Z,35.58
2022-08-18T22:39:36.328Z,35.73
2022-08-18T22:44:36.222Z,35.73
2022-08-18T22:49:36.159Z,35.73
2022-08-18T22:54:36.083Z,35.73
2022-08-18T22:59:36.014Z,35.82
2022-08-18T23:04:36.955Z,35.91
2022-08-18T23:09:35.914Z,36.00
2022-08-18T23:14:35.832Z,36.00
2022-08-18T23:19:35.734Z,36.03
2022-08-18T23:24:35.726Z,36.06
2022-08-18T23:29:35.620Z,36.06
2022-08-18T23:34:35.654Z,36.03
2022-08-18T23:39:35.535Z,36.12
2022-08-18T23:44:35.409Z,36.22
2022-08-18T23:49:36.035Z,36.28
2022-08-18T23:54:35.308Z,36.37
2022-08-18T23:59:35.210Z,36.53
